createdAt,value
2023-05-12T00:00:03.787Z,977.53
2023-05-12T00:02:03.419Z,977.47
2023-05-12T00:03:03.655Z,977.53
2023-05-12T00:04:03.982Z,977.44
2023-05-12T00:05:03.449Z,977.56
2023-05-12T00:06:03.580Z,977.59
2023-05-12T00:07:03.466Z,977.56
2023-05-12T00:08:03.595Z,977.62
2023-05-12T00:10:04.003Z,977.53
2023-05-12T00:12:03.682Z,977.47
2023-05-12T00:13:03.788Z,977.42
2023-05-12T00:14:03.231Z,977.53
2023-05-12T00:15:02.995Z,977.47
2023-05-12T00:16:02.993Z,977.67
2023-05-12T00:17:03.649Z,977.62
2023-05-12T00:18:03.722Z,977.56
2023-05-12T00:19:03.291Z,977.62
2023-05-12T00:20:03.133Z,977.50
2023-05-12T00:21:03.136Z,977.70
2023-05-12T00:22:03.115Z,977.67
2023-05-12T00:23:03.747Z,977.62
2023-05-12T00:24:03.744Z,977.67
2023-05-12T00:25:03.314Z,977.53
2023-05-12T00:26:03.516Z,977.70
2023-05-12T00:27:03.203Z,977.59
2023-05-12T00:28:02.928Z,977.56
2023-05-12T00:29:03.453Z,977.59
2023-05-12T00:30:03.210Z,977.62
2023-05-12T00:31:03.771Z,977.59
2023-05-12T00:32:04.105Z,977.72
2023-05-12T00:33:03.700Z,977.53
2023-05-12T00:34:03.810Z,977.50
2023-05-12T00:35:03.352Z,977.62
2023-05-12T00:36:03.009Z,977.62
2023-05-12T00:37:03.578Z,977.72
2023-05-12T00:38:03.393Z,977.50
2023-05-12T00:39:03.365Z,977.53
2023-05-12T00:40:03.363Z,977.59
2023-05-12T00:41:03.048Z,977.59
2023-05-12T00:42:03.035Z,977.56
2023-05-12T00:43:03.197Z,977.56
2023-05-12T00:44:03.712Z,977.78
2023-05-12T00:45:03.348Z,977.56
2023-05-12T00:46:03.004Z,977.62
2023-05-12T00:47:03.576Z,977.62
2023-05-12T00:49:03.179Z,977.59
2023-05-12T00:50:03.249Z,977.59
2023-05-12T00:51:03.519Z,977.62
2023-05-12T00:52:02.938Z,977.59
2023-05-12T00:53:03.046Z,977.53
2023-05-12T00:54:03.657Z,977.51
2023-05-12T00:55:03.725Z,977.56
2023-05-12T00:56:03.396Z,977.56
2023-05-12T00:57:03.426Z,977.45
2023-05-12T00:59:03.637Z,977.45
2023-05-12T01:01:03.880Z,977.51
2023-05-12T01:02:03.557Z,977.39
2023-05-12T01:03:03.260Z,977.48
2023-05-12T01:04:02.973Z,977.42
2023-05-12T01:05:03.662Z,977.48
2023-05-12T01:07:03.748Z,977.48
2023-05-12T01:08:03.527Z,977.51
2023-05-12T01:09:03.424Z,977.60
2023-05-12T01:10:02.969Z,977.54
2023-05-12T01:11:03.693Z,977.48
2023-05-12T01:12:03.866Z,977.48
2023-05-12T01:13:03.450Z,977.46
2023-05-12T01:14:03.147Z,977.46
2023-05-12T01:15:03.675Z,977.49
2023-05-12T01:16:03.308Z,977.40
2023-05-12T01:17:04.063Z,977.46
2023-05-12T01:19:03.433Z,977.52
2023-05-12T01:20:03.597Z,977.46
2023-05-12T01:21:03.536Z,977.52
2023-05-12T01:22:03.058Z,977.46
2023-05-12T01:23:03.833Z,977.43
2023-05-12T01:25:03.433Z,977.35
2023-05-12T01:26:03.337Z,977.46
2023-05-12T01:27:02.986Z,977.60
2023-05-12T01:28:03.145Z,977.38
2023-05-12T01:29:03.790Z,977.55
2023-05-12T01:31:03.198Z,977.58
2023-05-12T01:32:03.466Z,977.61
2023-05-12T01:33:03.173Z,977.46
2023-05-12T01:34:03.189Z,977.38
2023-05-12T01:35:03.016Z,977.52
2023-05-12T01:36:03.168Z,977.50
2023-05-12T01:37:03.613Z,977.74
2023-05-12T01:38:03.242Z,977.53
2023-05-12T01:39:03.857Z,977.66
2023-05-12T01:41:02.972Z,977.50
2023-05-12T01:42:03.540Z,977.44
2023-05-12T01:44:03.569Z,977.66
2023-05-12T01:45:03.625Z,977.59
2023-05-12T01:46:03.846Z,977.42
2023-05-12T01:47:03.823Z,977.48
2023-05-12T01:48:03.436Z,977.31
2023-05-12T01:50:03.594Z,977.48
2023-05-12T01:52:03.737Z,977.60
2023-05-12T01:54:03.510Z,977.43
2023-05-12T01:55:03.058Z,977.46
2023-05-12T01:56:03.671Z,977.51
2023-05-12T01:57:03.753Z,977.51
2023-05-12T01:58:03.450Z,977.43
2023-05-12T01:59:03.042Z,977.43
2023-05-12T02:00:03.663Z,977.52
2023-05-12T02:02:03.855Z,977.40
2023-05-12T02:04:03.358Z,977.46
2023-05-12T02:05:03.033Z,977.43
2023-05-12T02:06:03.591Z,977.52
2023-05-12T02:07:03.135Z,977.43
2023-05-12T02:08:03.616Z,977.46
2023-05-12T02:10:03.247Z,977.49
2023-05-12T02:11:03.001Z,977.50
2023-05-12T02:12:03.597Z,977.33
2023-05-12T02:13:03.679Z,977.50
2023-05-12T02:14:03.282Z,977.41
2023-05-12T02:15:03.620Z,977.53
2023-05-12T02:16:03.825Z,977.50
2023-05-12T02:17:03.737Z,977.56
2023-05-12T02:19:03.155Z,977.47
2023-05-12T02:20:03.731Z,977.50
2023-05-12T02:22:03.330Z,977.48
2023-05-12T02:23:03.464Z,977.59
2023-05-12T02:24:03.345Z,977.48
2023-05-12T02:25:03.303Z,977.51
2023-05-12T02:26:03.536Z,977.67
2023-05-12T02:27:03.067Z,977.53
2023-05-12T02:28:03.088Z,977.59
2023-05-12T02:29:03.105Z,977.51
2023-05-12T02:30:03.762Z,977.48
2023-05-12T02:31:03.481Z,977.67
2023-05-12T02:32:03.778Z,977.54
2023-05-12T02:33:03.559Z,977.70
2023-05-12T02:34:06.864Z,977.57
2023-05-12T02:35:02.974Z,977.62
2023-05-12T02:36:03.460Z,977.62
2023-05-12T02:37:03.397Z,977.54
2023-05-12T02:38:02.997Z,977.70
2023-05-12T02:39:03.043Z,977.48
2023-05-12T02:40:03.785Z,977.60
2023-05-12T02:42:03.479Z,977.57
2023-05-12T02:44:03.459Z,977.65
2023-05-12T02:45:03.370Z,977.46
2023-05-12T02:46:04.003Z,977.46
2023-05-12T02:47:03.603Z,977.57
2023-05-12T02:48:03.779Z,977.40
2023-05-12T02:49:03.328Z,977.43
2023-05-12T02:50:03.346Z,977.40
2023-05-12T02:51:03.806Z,977.49
2023-05-12T02:52:03.624Z,977.46
2023-05-12T02:53:03.635Z,977.60
2023-05-12T02:54:03.832Z,977.41
2023-05-12T02:55:03.413Z,977.41
2023-05-12T02:56:03.371Z,977.44
2023-05-12T02:57:03.841Z,977.52
2023-05-12T02:59:02.945Z,977.44
2023-05-12T03:00:03.606Z,977.44
2023-05-12T03:01:11.822Z,977.38
2023-05-12T03:02:03.206Z,977.38
2023-05-12T03:03:03.262Z,977.32
2023-05-12T03:04:03.031Z,977.52
2023-05-12T03:05:03.810Z,977.44
2023-05-12T03:07:03.021Z,977.38
2023-05-12T03:08:03.710Z,977.38
2023-05-12T03:10:03.820Z,977.29
2023-05-12T03:11:03.827Z,977.47
2023-05-12T03:12:03.779Z,977.41
2023-05-12T03:14:03.006Z,977.35
2023-05-12T03:15:03.046Z,977.38
2023-05-12T03:16:03.144Z,977.55
2023-05-12T03:17:03.749Z,977.35
2023-05-12T03:18:03.477Z,977.29
2023-05-12T03:19:03.749Z,977.29
2023-05-12T03:21:03.729Z,977.38
2023-05-12T03:23:03.049Z,977.44
2023-05-12T03:24:02.995Z,977.38
2023-05-12T03:26:03.331Z,977.55
2023-05-12T03:27:03.489Z,977.55
2023-05-12T03:28:03.133Z,977.55
2023-05-12T03:29:03.862Z,977.38
2023-05-12T03:31:03.504Z,977.41
2023-05-12T03:32:03.403Z,977.47
2023-05-12T03:33:04.015Z,977.55
2023-05-12T03:34:03.710Z,977.61
2023-05-12T03:35:03.441Z,977.44
2023-05-12T03:37:03.021Z,977.47
2023-05-12T03:39:08.105Z,977.41
2023-05-12T03:40:03.181Z,977.50
2023-05-12T03:41:02.872Z,977.55
2023-05-12T03:42:03.091Z,977.55
2023-05-12T03:43:03.674Z,977.55
2023-05-12T03:44:03.470Z,977.61
2023-05-12T03:45:03.034Z,977.50
2023-05-12T03:46:03.914Z,977.47
2023-05-12T03:47:03.538Z,977.58
2023-05-12T03:48:03.157Z,977.56
2023-05-12T03:49:03.801Z,977.41
2023-05-12T03:50:03.832Z,977.47
2023-05-12T03:51:03.135Z,977.53
2023-05-12T03:52:03.874Z,977.50
2023-05-12T03:54:03.279Z,977.53
2023-05-12T03:55:03.310Z,977.53
2023-05-12T03:58:03.262Z,977.33
2023-05-12T03:59:03.625Z,977.41
2023-05-12T04:00:03.628Z,977.41
2023-05-12T04:01:03.511Z,977.41
2023-05-12T04:02:03.341Z,977.38
2023-05-12T04:03:03.519Z,977.27
2023-05-12T04:04:03.280Z,977.35
2023-05-12T04:05:03.923Z,977.41
2023-05-12T04:07:03.060Z,977.38
2023-05-12T04:08:03.773Z,977.38
2023-05-12T04:10:03.135Z,977.32
2023-05-12T04:11:03.176Z,977.32
2023-05-12T04:12:03.177Z,977.38
2023-05-12T04:13:04.028Z,977.26
2023-05-12T04:15:03.094Z,977.38
2023-05-12T04:16:03.328Z,977.32
2023-05-12T04:17:03.836Z,977.35
2023-05-12T04:19:03.987Z,977.15
2023-05-12T04:20:03.722Z,977.35
2023-05-12T04:22:03.545Z,977.20
2023-05-12T04:23:03.705Z,977.26
2023-05-12T04:30:03.088Z,977.25
2023-05-12T04:33:03.460Z,977.34
2023-05-12T04:34:03.948Z,977.31
2023-05-12T04:36:03.147Z,977.42
2023-05-12T04:37:03.898Z,977.36
2023-05-12T04:39:03.266Z,977.59
2023-05-12T04:40:03.873Z,977.45
2023-05-12T04:42:03.659Z,977.33
2023-05-12T04:43:03.574Z,977.33
2023-05-12T04:44:03.785Z,977.36
2023-05-12T04:45:03.568Z,977.39
2023-05-12T04:46:03.383Z,977.44
2023-05-12T04:47:03.197Z,977.36
2023-05-12T04:48:03.878Z,977.39
2023-05-12T04:49:03.950Z,977.47
2023-05-12T04:50:03.959Z,977.39
2023-05-12T04:51:03.841Z,977.56
2023-05-12T04:52:03.435Z,977.41
2023-05-12T04:53:03.125Z,977.38
2023-05-12T04:54:03.163Z,977.47
2023-05-12T04:55:03.729Z,977.33
2023-05-12T04:57:03.008Z,977.53
2023-05-12T04:58:02.965Z,977.55
2023-05-12T04:59:03.651Z,977.47
2023-05-12T05:01:03.405Z,977.58
2023-05-12T05:02:03.097Z,977.44
2023-05-12T05:03:04.172Z,977.41
2023-05-12T05:05:03.293Z,977.46
2023-05-12T05:06:03.863Z,977.49
2023-05-12T05:07:03.584Z,977.52
2023-05-12T05:08:03.221Z,977.57
2023-05-12T05:09:03.955Z,977.57
2023-05-12T05:11:03.808Z,977.46
2023-05-12T05:12:03.371Z,977.60
2023-05-12T05:14:03.651Z,977.51
2023-05-12T05:15:03.616Z,977.48
2023-05-12T05:16:03.377Z,977.48
2023-05-12T05:17:03.083Z,977.45
2023-05-12T05:18:03.290Z,977.42
2023-05-12T05:19:15.392Z,977.54
2023-05-12T05:20:11.542Z,977.59
2023-05-12T05:21:03.521Z,977.56
2023-05-12T05:22:03.193Z,977.48
2023-05-12T05:23:03.876Z,977.51
2023-05-12T05:24:03.603Z,977.53
2023-05-12T05:25:03.191Z,977.59
2023-05-12T05:26:03.846Z,977.42
2023-05-12T05:27:03.691Z,977.59
2023-05-12T05:28:03.701Z,977.50
2023-05-12T05:30:03.071Z,977.69
2023-05-12T05:31:03.820Z,977.50
2023-05-12T05:33:03.049Z,977.50
2023-05-12T05:34:03.225Z,977.50
2023-05-12T05:35:03.535Z,977.55
2023-05-12T05:36:03.770Z,977.58
2023-05-12T05:37:03.560Z,977.41
2023-05-12T05:38:03.572Z,977.55
2023-05-12T05:39:03.657Z,977.58
2023-05-12T05:40:03.388Z,977.55
2023-05-12T05:41:03.919Z,977.66
2023-05-12T05:42:03.858Z,977.44
2023-05-12T05:43:03.451Z,977.52
2023-05-12T05:44:03.318Z,977.65
2023-05-12T05:45:03.061Z,977.68
2023-05-12T05:46:03.189Z,977.71
2023-05-12T05:48:04.075Z,977.57
2023-05-12T05:50:03.507Z,977.79
2023-05-12T05:51:03.468Z,977.57
2023-05-12T05:52:03.009Z,977.68
2023-05-12T05:53:03.721Z,977.65
2023-05-12T05:54:03.862Z,977.73
2023-05-12T05:55:03.462Z,977.79
2023-05-12T05:57:02.983Z,977.70
2023-05-12T05:58:03.875Z,977.79
2023-05-12T05:59:03.822Z,977.84
2023-05-12T06:00:03.521Z,977.79
2023-05-12T06:01:03.696Z,977.76
2023-05-12T06:02:03.409Z,977.73
2023-05-12T06:03:03.662Z,977.67
2023-05-12T06:04:03.517Z,977.75
2023-05-12T06:05:03.290Z,977.62
2023-05-12T06:06:03.438Z,977.72
2023-05-12T06:07:03.074Z,977.78
2023-05-12T06:08:03.758Z,977.66
2023-05-12T06:10:03.272Z,977.69
2023-05-12T06:12:03.874Z,977.74
2023-05-12T06:14:03.243Z,977.88
2023-05-12T06:15:03.209Z,977.80
2023-05-12T06:16:03.270Z,977.91
2023-05-12T06:17:03.674Z,977.96
2023-05-12T06:18:03.976Z,977.79
2023-05-12T06:19:03.576Z,977.82
2023-05-12T06:20:03.601Z,977.87
2023-05-12T06:21:03.185Z,977.87
2023-05-12T06:22:03.044Z,977.76
2023-05-12T06:23:03.543Z,977.81
2023-05-12T06:24:03.656Z,977.81
2023-05-12T06:25:03.904Z,977.78
2023-05-12T06:26:03.656Z,977.81
2023-05-12T06:28:03.314Z,977.89
2023-05-12T06:29:03.050Z,977.89
2023-05-12T06:30:03.863Z,977.91
2023-05-12T06:31:03.892Z,977.85
2023-05-12T06:32:03.539Z,977.91
2023-05-12T06:33:03.236Z,977.91
2023-05-12T06:34:03.879Z,977.96
2023-05-12T06:35:03.711Z,977.85
2023-05-12T06:36:03.319Z,977.82
2023-05-12T06:37:03.956Z,977.84
2023-05-12T06:38:03.727Z,977.81
2023-05-12T06:39:03.713Z,977.67
2023-05-12T06:40:03.767Z,977.75
2023-05-12T06:41:03.782Z,977.89
2023-05-12T06:42:03.427Z,977.98
2023-05-12T06:43:03.405Z,978.01
2023-05-12T06:44:03.224Z,977.95
2023-05-12T06:45:03.251Z,977.86
2023-05-12T06:46:03.127Z,978.06
2023-05-12T06:47:03.731Z,977.88
2023-05-12T06:48:03.503Z,977.94
2023-05-12T06:49:03.890Z,977.85
2023-05-12T06:50:03.673Z,977.90
2023-05-12T06:51:03.910Z,978.02
2023-05-12T06:53:03.109Z,978.07
2023-05-12T06:54:03.501Z,978.24
2023-05-12T06:55:03.724Z,978.13
2023-05-12T06:56:03.357Z,978.12
2023-05-12T06:57:03.917Z,978.27
2023-05-12T06:58:03.523Z,978.29
2023-05-12T06:59:03.553Z,978.32
2023-05-12T07:00:03.086Z,978.26
2023-05-12T07:01:03.345Z,978.32
2023-05-12T07:02:03.009Z,978.26
2023-05-12T07:03:04.061Z,978.37
2023-05-12T07:04:03.912Z,978.34
2023-05-12T07:05:03.629Z,978.40
2023-05-12T07:06:03.322Z,978.37
2023-05-12T07:07:03.448Z,978.37
2023-05-12T07:08:03.745Z,978.44
2023-05-12T07:09:03.265Z,978.36
2023-05-12T07:10:03.350Z,978.44
2023-05-12T07:11:03.042Z,978.42
2023-05-12T07:12:02.957Z,978.52
2023-05-12T07:13:03.812Z,978.42
2023-05-12T07:15:03.148Z,978.61
2023-05-12T07:16:03.269Z,978.46
2023-05-12T07:17:03.927Z,978.52
2023-05-12T07:18:03.690Z,978.55
2023-05-12T07:19:03.449Z,978.66
2023-05-12T07:20:03.548Z,978.57
2023-05-12T07:21:03.138Z,978.63
2023-05-12T07:22:03.244Z,978.54
2023-05-12T07:23:03.381Z,978.69
2023-05-12T07:24:03.263Z,978.68
2023-05-12T07:25:03.285Z,978.71
2023-05-12T07:26:03.300Z,978.77
2023-05-12T07:27:03.438Z,978.74
2023-05-12T07:28:03.673Z,978.77
2023-05-12T07:29:03.163Z,978.85
2023-05-12T07:30:03.020Z,978.83
2023-05-12T07:31:03.335Z,979.00
2023-05-12T07:32:02.952Z,978.97
2023-05-12T07:33:03.674Z,978.88
2023-05-12T07:34:03.435Z,978.97
2023-05-12T07:35:03.503Z,978.85
2023-05-12T07:36:03.111Z,978.96
2023-05-12T07:37:03.926Z,978.88
2023-05-12T07:39:03.419Z,978.87
2023-05-12T07:40:03.369Z,978.81
2023-05-12T07:41:03.393Z,978.98
2023-05-12T07:42:03.497Z,978.98
2023-05-12T07:43:03.544Z,979.01
2023-05-12T07:44:03.604Z,979.07
2023-05-12T07:45:03.316Z,979.04
2023-05-12T07:46:03.887Z,979.07
2023-05-12T07:48:03.499Z,979.12
2023-05-12T07:49:03.587Z,979.00
2023-05-12T07:51:03.250Z,979.11
2023-05-12T07:52:03.220Z,979.00
2023-05-12T07:53:04.015Z,979.11
2023-05-12T07:55:03.229Z,979.05
2023-05-12T07:56:03.848Z,979.11
2023-05-12T07:57:03.886Z,979.16
2023-05-12T07:58:03.530Z,979.08
2023-05-12T07:59:03.414Z,979.16
2023-05-12T08:01:02.952Z,979.16
2023-05-12T08:02:03.229Z,979.16
2023-05-12T08:03:03.642Z,979.19
2023-05-12T08:04:03.508Z,979.30
2023-05-12T08:05:03.188Z,979.27
2023-05-12T08:06:03.677Z,979.30
2023-05-12T08:08:03.153Z,979.18
2023-05-12T08:09:03.845Z,979.18
2023-05-12T08:11:03.136Z,979.26
2023-05-12T08:12:03.789Z,979.29
2023-05-12T08:13:03.523Z,979.23
2023-05-12T08:14:03.488Z,979.34
2023-05-12T08:15:03.441Z,979.20
2023-05-12T08:16:03.415Z,979.31
2023-05-12T08:17:03.579Z,979.31
2023-05-12T08:19:04.093Z,979.25
2023-05-12T08:20:03.616Z,979.19
2023-05-12T08:21:03.315Z,979.36
2023-05-12T08:22:03.108Z,979.27
2023-05-12T08:23:03.723Z,979.32
2023-05-12T08:24:03.563Z,979.23
2023-05-12T08:25:03.141Z,979.32
2023-05-12T08:26:03.690Z,979.40
2023-05-12T08:27:06.900Z,979.32
2023-05-12T08:28:03.783Z,979.37
2023-05-12T08:30:03.024Z,979.37
2023-05-12T08:31:05.250Z,979.40
2023-05-12T08:32:03.587Z,979.48
2023-05-12T08:33:04.027Z,979.42
2023-05-12T08:34:11.352Z,979.48
2023-05-12T08:35:03.399Z,979.56
2023-05-12T08:37:03.002Z,979.68
2023-05-12T08:38:03.590Z,979.64
2023-05-12T08:40:03.222Z,979.82
2023-05-12T08:41:03.760Z,979.81
2023-05-12T08:42:03.605Z,979.81
2023-05-12T08:43:03.648Z,979.89
2023-05-12T08:44:03.776Z,979.95
2023-05-12T08:45:03.379Z,979.89
2023-05-12T08:46:03.114Z,979.75
2023-05-12T08:47:03.704Z,979.86
2023-05-12T08:49:04.044Z,979.94
2023-05-12T08:51:03.418Z,979.88
2023-05-12T08:52:03.522Z,979.75
2023-05-12T08:55:03.975Z,979.77
2023-05-12T08:57:09.259Z,979.86
2023-05-12T08:58:03.727Z,979.80
2023-05-12T08:59:03.598Z,979.88
2023-05-12T09:00:03.348Z,979.77
2023-05-12T09:01:03.301Z,979.93
2023-05-12T09:02:03.918Z,979.91
2023-05-12T09:03:03.750Z,979.88
2023-05-12T09:04:03.475Z,979.93
2023-05-12T09:05:03.703Z,980.05
2023-05-12T09:06:03.206Z,979.93
2023-05-12T09:07:03.906Z,979.93
2023-05-12T09:08:03.643Z,979.93
2023-05-12T09:09:03.759Z,980.02
2023-05-12T09:10:03.230Z,979.88
2023-05-12T09:11:03.044Z,979.93
2023-05-12T09:12:03.199Z,979.82
2023-05-12T09:13:03.770Z,980.04
2023-05-12T09:14:03.633Z,979.85
2023-05-12T09:15:03.197Z,979.99
2023-05-12T09:16:03.917Z,980.04
2023-05-12T09:18:03.386Z,979.92
2023-05-12T09:19:06.968Z,979.82
2023-05-12T09:20:03.662Z,979.84
2023-05-12T09:22:03.665Z,979.84
2023-05-12T09:23:03.876Z,979.91
2023-05-12T09:24:03.511Z,979.81
2023-05-12T09:25:03.380Z,979.78
2023-05-12T09:26:04.007Z,979.80
2023-05-12T09:28:03.512Z,979.72
2023-05-12T09:29:03.093Z,979.77
2023-05-12T09:30:03.694Z,979.88
2023-05-12T09:31:03.546Z,979.88
2023-05-12T09:32:04.097Z,979.86
2023-05-12T09:33:03.729Z,979.90
2023-05-12T09:34:03.386Z,979.87
2023-05-12T09:35:03.478Z,979.90
2023-05-12T09:36:03.156Z,979.90
2023-05-12T09:37:03.955Z,980.01
2023-05-12T09:39:03.831Z,979.81
2023-05-12T09:40:03.395Z,979.75
2023-05-12T09:42:03.632Z,979.80
2023-05-12T09:43:03.351Z,979.87
2023-05-12T09:44:03.281Z,979.76
2023-05-12T09:45:03.336Z,979.89
2023-05-12T09:46:03.378Z,979.92
2023-05-12T09:47:03.121Z,979.92
2023-05-12T09:48:03.912Z,979.86
2023-05-12T09:50:03.196Z,980.01
2023-05-12T09:51:03.084Z,980.07
2023-05-12T09:52:03.559Z,980.26
2023-05-12T09:53:03.350Z,980.13
2023-05-12T09:54:05.694Z,980.13
2023-05-12T09:55:03.998Z,980.13
2023-05-12T09:56:03.898Z,980.04
2023-05-12T09:57:04.022Z,980.16
2023-05-12T09:58:03.448Z,980.10
2023-05-12T09:59:02.996Z,980.13
2023-05-12T10:00:09.254Z,980.21
2023-05-12T10:01:23.607Z,980.27
2023-05-12T10:02:03.877Z,980.16
2023-05-12T10:03:03.544Z,980.17
2023-05-12T10:04:03.312Z,980.27
2023-05-12T10:05:03.322Z,980.17
2023-05-12T10:06:04.609Z,980.17
2023-05-12T10:07:03.667Z,980.17
2023-05-12T10:08:03.914Z,980.14
2023-05-12T10:09:03.465Z,980.14
2023-05-12T10:10:03.256Z,980.00
2023-05-12T10:11:03.752Z,979.94
2023-05-12T10:12:03.807Z,979.97
2023-05-12T10:13:03.604Z,979.94
2023-05-12T10:14:03.612Z,980.00
2023-05-12T10:16:03.309Z,980.06
2023-05-12T10:17:03.645Z,980.00
2023-05-12T10:18:03.141Z,980.12
2023-05-12T10:19:04.035Z,979.97
2023-05-12T10:20:03.942Z,979.88
2023-05-12T10:21:03.575Z,979.94
2023-05-12T10:22:03.120Z,979.94
2023-05-12T10:23:03.603Z,980.11
2023-05-12T10:24:03.219Z,980.05
2023-05-12T10:25:03.768Z,979.93
2023-05-12T10:27:02.979Z,979.88
2023-05-12T10:28:03.658Z,979.90
2023-05-12T10:29:03.539Z,979.96
2023-05-12T10:30:03.531Z,979.80
2023-05-12T10:31:03.142Z,979.83
2023-05-12T10:32:03.707Z,979.90
2023-05-12T10:33:03.557Z,979.90
2023-05-12T10:34:03.261Z,979.90
2023-05-12T10:35:03.255Z,979.96
2023-05-12T10:36:02.971Z,979.96
2023-05-12T10:37:03.592Z,979.99
2023-05-12T10:39:03.767Z,979.80
2023-05-12T10:41:03.504Z,979.83
2023-05-12T10:42:03.551Z,979.90
2023-05-12T10:43:03.046Z,979.71
2023-05-12T10:44:03.780Z,979.88
2023-05-12T10:45:03.552Z,979.80
2023-05-12T10:46:03.176Z,979.80
2023-05-12T10:47:03.853Z,979.86
2023-05-12T10:48:03.990Z,979.80
2023-05-12T10:49:03.169Z,979.86
2023-05-12T10:50:03.733Z,979.69
2023-05-12T10:52:03.191Z,979.72
2023-05-12T10:53:03.703Z,979.69
2023-05-12T10:55:03.839Z,979.60
2023-05-12T10:56:03.472Z,979.66
2023-05-12T10:57:04.081Z,979.80
2023-05-12T10:58:04.576Z,979.81
2023-05-12T11:00:05.136Z,979.63
2023-05-12T11:01:05.148Z,979.63
2023-05-12T11:02:06.709Z,979.58
2023-05-12T11:03:11.531Z,979.66
2023-05-12T11:04:04.335Z,979.58
2023-05-12T11:05:04.890Z,979.57
2023-05-12T11:06:04.754Z,979.63
2023-05-12T11:07:04.431Z,979.52
2023-05-12T11:08:04.511Z,979.63
2023-05-12T11:09:04.991Z,979.55
2023-05-12T11:10:06.010Z,979.52
2023-05-12T11:12:05.313Z,979.66
2023-05-12T11:13:03.756Z,979.66
2023-05-12T11:14:03.230Z,979.60
2023-05-12T11:15:03.949Z,979.54
2023-05-12T11:17:03.931Z,979.68
2023-05-12T11:18:03.440Z,979.54
2023-05-12T11:19:03.300Z,979.56
2023-05-12T11:20:03.248Z,979.59
2023-05-12T11:22:03.127Z,979.71
2023-05-12T11:23:03.740Z,979.71
2023-05-12T11:25:03.366Z,979.65
2023-05-12T11:27:03.282Z,979.79
2023-05-12T11:30:03.404Z,979.77
2023-05-12T11:32:03.352Z,979.83
2023-05-12T11:33:03.752Z,979.80
2023-05-12T11:34:13.347Z,980.00
2023-05-12T11:35:03.749Z,979.83
2023-05-12T11:36:03.820Z,979.91
2023-05-12T11:38:03.456Z,979.94
2023-05-12T11:39:03.126Z,979.86
2023-05-12T11:40:03.350Z,979.75
2023-05-12T11:41:03.755Z,979.95
2023-05-12T11:42:14.324Z,979.89
2023-05-12T11:43:03.693Z,979.89
2023-05-12T11:44:03.164Z,979.92
2023-05-12T11:45:03.119Z,979.84
2023-05-12T11:46:03.290Z,979.89
2023-05-12T11:47:03.844Z,979.98
2023-05-12T11:48:03.941Z,979.89
2023-05-12T11:49:03.620Z,979.92
2023-05-12T11:51:03.676Z,980.01
2023-05-12T11:53:03.889Z,979.84
2023-05-12T11:54:03.906Z,979.86
2023-05-12T11:55:03.469Z,979.84
2023-05-12T11:56:03.154Z,979.61
2023-05-12T11:57:03.146Z,979.70
2023-05-12T11:58:03.719Z,979.75
2023-05-12T12:00:03.071Z,979.69
2023-05-12T12:01:03.670Z,979.84
2023-05-12T12:03:03.150Z,979.78
2023-05-12T12:04:03.926Z,979.63
2023-05-12T12:05:04.073Z,979.69
2023-05-12T12:08:03.369Z,979.69
2023-05-12T12:10:03.810Z,979.69
2023-05-12T12:11:04.276Z,979.77
2023-05-12T12:13:04.014Z,979.80
2023-05-12T12:15:04.143Z,979.80
2023-05-12T12:16:03.105Z,979.77
2023-05-12T12:17:03.507Z,979.80
2023-05-12T12:18:03.328Z,979.79
2023-05-12T12:19:03.524Z,979.76
2023-05-12T12:20:03.355Z,979.85
2023-05-12T12:21:03.301Z,979.70
2023-05-12T12:22:03.102Z,979.85
2023-05-12T12:23:03.896Z,979.85
2023-05-12T12:24:03.893Z,979.82
2023-05-12T12:26:03.540Z,979.87
2023-05-12T12:28:03.842Z,979.95
2023-05-12T12:30:03.424Z,979.95
2023-05-12T12:31:03.104Z,980.13
2023-05-12T12:32:03.760Z,980.16
2023-05-12T12:33:03.595Z,980.24
2023-05-12T12:34:03.176Z,980.24
2023-05-12T12:35:04.034Z,980.21
2023-05-12T12:37:02.903Z,980.29
2023-05-12T12:38:03.522Z,980.13
2023-05-12T12:40:03.704Z,980.37
2023-05-12T12:41:03.431Z,980.26
2023-05-12T12:42:03.104Z,980.43
2023-05-12T12:43:03.571Z,980.34
2023-05-12T12:44:03.298Z,980.46
2023-05-12T12:45:03.993Z,980.54
2023-05-12T12:47:03.429Z,980.69
2023-05-12T12:48:03.609Z,980.63
2023-05-12T12:49:03.164Z,980.72
2023-05-12T12:50:03.327Z,980.60
2023-05-12T12:51:03.927Z,980.78
2023-05-12T12:52:03.492Z,980.78
2023-05-12T12:53:03.204Z,980.95
2023-05-12T12:54:03.731Z,980.81
2023-05-12T12:55:03.824Z,980.78
2023-05-12T12:57:03.039Z,980.93
2023-05-12T12:58:03.546Z,980.84
2023-05-12T12:59:03.850Z,980.84
2023-05-12T13:00:03.285Z,980.87
2023-05-12T13:01:03.352Z,980.93
2023-05-12T13:02:03.084Z,981.04
2023-05-12T13:03:03.306Z,980.99
2023-05-12T13:04:03.146Z,980.99
2023-05-12T13:05:03.681Z,980.84
2023-05-12T13:07:03.728Z,980.96
2023-05-12T13:08:03.680Z,980.90
2023-05-12T13:09:03.297Z,980.92
2023-05-12T13:11:03.871Z,981.12
2023-05-12T13:12:03.981Z,980.89
2023-05-12T13:13:03.855Z,981.06
2023-05-12T13:15:03.907Z,981.00
2023-05-12T13:16:02.936Z,980.91
2023-05-12T13:17:03.769Z,981.00
2023-05-12T13:18:03.461Z,980.91
2023-05-12T13:19:04.054Z,980.88
2023-05-12T13:21:03.769Z,980.90
2023-05-12T13:22:03.704Z,980.87
2023-05-12T13:23:03.397Z,980.96
2023-05-12T13:24:03.837Z,980.96
2023-05-12T13:25:06.518Z,981.02
2023-05-12T13:26:03.707Z,981.02
2023-05-12T13:27:03.333Z,981.11
2023-05-12T13:31:03.371Z,981.11
2023-05-12T13:32:03.547Z,981.23
2023-05-12T13:33:06.398Z,981.11
2023-05-12T13:35:03.531Z,981.14
2023-05-12T13:37:03.053Z,981.02
2023-05-12T13:38:03.184Z,981.05
2023-05-12T13:39:03.869Z,981.00
2023-05-12T13:40:03.515Z,981.08
2023-05-12T13:41:03.041Z,981.05
2023-05-12T13:42:03.605Z,981.08
2023-05-12T13:44:03.891Z,981.05
2023-05-12T13:45:03.617Z,981.23
2023-05-12T13:46:03.222Z,981.17
2023-05-12T13:47:03.742Z,981.35
2023-05-12T13:49:03.404Z,981.26
2023-05-12T13:50:03.211Z,981.32
2023-05-12T13:51:03.706Z,981.32
2023-05-12T13:52:03.507Z,981.24
2023-05-12T13:53:03.008Z,981.41
2023-05-12T13:54:03.172Z,981.33
2023-05-12T13:55:02.934Z,981.36
2023-05-12T13:56:03.566Z,981.30
2023-05-12T13:58:03.316Z,981.36
2023-05-12T13:59:03.660Z,981.30
2023-05-12T14:00:03.860Z,981.36
2023-05-12T14:01:03.329Z,981.30
2023-05-12T14:02:03.584Z,981.27
2023-05-12T14:03:03.209Z,981.33
2023-05-12T14:04:03.027Z,981.36
2023-05-12T14:05:03.238Z,981.36
2023-05-12T14:06:03.349Z,981.24
2023-05-12T14:07:02.951Z,981.44
2023-05-12T14:09:03.743Z,981.33
2023-05-12T14:11:03.521Z,981.42
2023-05-12T14:13:03.437Z,981.27
2023-05-12T14:14:04.092Z,981.36
2023-05-12T14:15:29.334Z,981.36
2023-05-12T14:16:03.185Z,981.42
2023-05-12T14:17:03.898Z,981.45
2023-05-12T14:19:03.814Z,981.36
2023-05-12T14:20:04.548Z,981.33
2023-05-12T14:22:18.899Z,981.24
2023-05-12T14:23:03.251Z,981.39
2023-05-12T14:24:03.769Z,981.30
2023-05-12T14:26:03.884Z,981.30
2023-05-12T14:28:03.188Z,981.18
2023-05-12T14:29:03.305Z,981.33
2023-05-12T14:30:03.726Z,981.21
2023-05-12T14:31:03.448Z,981.30
2023-05-12T14:32:03.535Z,981.18
2023-05-12T14:34:03.566Z,981.30
2023-05-12T14:36:08.969Z,981.32
2023-05-12T14:39:03.514Z,981.30
2023-05-12T14:40:03.668Z,981.35
2023-05-12T14:42:03.418Z,981.29
2023-05-12T14:43:03.420Z,981.24
2023-05-12T14:44:03.009Z,981.41
2023-05-12T14:46:03.672Z,981.24
2023-05-12T14:48:04.023Z,981.27
2023-05-12T14:49:03.548Z,981.26
2023-05-12T14:50:03.262Z,981.41
2023-05-12T14:51:03.144Z,981.29
2023-05-12T14:52:03.701Z,981.29
2023-05-12T14:53:03.668Z,981.29
2023-05-12T14:54:15.207Z,981.21
2023-05-12T14:56:03.881Z,981.29